sensor_id;sensor_type;location;lat;lon;timestamp;P1;durP1;ratioP1;P2;durP2;ratioP2
51298;SDS011;37382;45.192;9.790;2024-03-02T00:01:38;24.55;;;6.32;;
51298;SDS011;37382;45.192;9.790;2024-03-02T00:04:06;16.20;;;6.00;;
51298;SDS011;37382;45.192;9.790;2024-03-02T00:06:34;16.15;;;5.80;;
51298;SDS011;37382;45.192;9.790;2024-03-02T00:09:02;19.13;;;6.22;;
51298;SDS011;37382;45.192;9.790;2024-03-02T00:11:30;14.00;;;5.60;;
51298;SDS011;37382;45.192;9.790;2024-03-02T00:13:57;18.75;;;6.03;;
51298;SDS011;37382;45.192;9.790;2024-03-02T00:16:29;18.45;;;7.00;;
51298;SDS011;37382;45.192;9.790;2024-03-02T00:19:01;18.80;;;6.43;;
51298;SDS011;37382;45.192;9.790;2024-03-02T00:21:32;13.77;;;6.20;;
51298;SDS011;37382;45.192;9.790;2024-03-02T00:24:00;17.95;;;6.22;;
51298;SDS011;37382;45.192;9.790;2024-03-02T00:26:33;19.10;;;6.25;;
51298;SDS011;37382;45.192;9.790;2024-03-02T00:29:01;18.15;;;6.75;;
51298;SDS011;37382;45.192;9.790;2024-03-02T00:31:29;19.92;;;6.00;;
51298;SDS011;37382;45.192;9.790;2024-03-02T00:33:57;13.35;;;6.22;;
51298;SDS011;37382;45.192;9.790;2024-03-02T00:36:30;17.50;;;6.90;;
51298;SDS011;37382;45.192;9.790;2024-03-02T00:38:58;21.90;;;6.63;;
51298;SDS011;37382;45.192;9.790;2024-03-02T00:41:29;14.05;;;6.38;;
51298;SDS011;37382;45.192;9.790;2024-03-02T00:46:31;12.20;;;6.43;;
51298;SDS011;37382;45.192;9.790;2024-03-02T00:49:04;18.63;;;6.57;;
51298;SDS011;37382;45.192;9.790;2024-03-02T00:51:33;15.95;;;5.93;;
51298;SDS011;37382;45.192;9.790;2024-03-02T00:54:03;16.77;;;5.95;;
51298;SDS011;37382;45.192;9.790;2024-03-02T00:56:32;13.77;;;6.40;;
51298;SDS011;37382;45.192;9.790;2024-03-02T00:59:01;18.00;;;6.57;;
51298;SDS011;37382;45.192;9.790;2024-03-02T01:01:29;19.65;;;6.55;;
51298;SDS011;37382;45.192;9.790;2024-03-02T01:03:57;14.70;;;6.13;;
51298;SDS011;37382;45.192;9.790;2024-03-02T01:06:25;14.85;;;6.88;;
51298;SDS011;37382;45.192;9.790;2024-03-02T01:08:52;19.98;;;6.97;;
51298;SDS011;37382;45.192;9.790;2024-03-02T01:11:20;13.63;;;6.45;;
51298;SDS011;37382;45.192;9.790;2024-03-02T01:13:51;17.00;;;6.13;;
51298;SDS011;37382;45.192;9.790;2024-03-02T01:16:21;15.77;;;6.07;;
51298;SDS011;37382;45.192;9.790;2024-03-02T01:18:48;16.25;;;6.75;;
51298;SDS011;37382;45.192;9.790;2024-03-02T01:21:16;19.15;;;6.63;;
51298;SDS011;37382;45.192;9.790;2024-03-02T01:23:44;15.00;;;5.90;;
51298;SDS011;37382;45.192;9.790;2024-03-02T01:26:11;21.60;;;6.18;;
51298;SDS011;37382;45.192;9.790;2024-03-02T01:28:38;21.05;;;5.82;;
51298;SDS011;37382;45.192;9.790;2024-03-02T01:31:06;14.52;;;5.35;;
51298;SDS011;37382;45.192;9.790;2024-03-02T01:33:33;15.27;;;5.50;;
51298;SDS011;37382;45.192;9.790;2024-03-02T01:36:01;14.75;;;4.95;;
51298;SDS011;37382;45.192;9.790;2024-03-02T01:38:29;13.65;;;5.07;;
51298;SDS011;37382;45.192;9.790;2024-03-02T01:40:56;17.88;;;5.35;;
51298;SDS011;37382;45.192;9.790;2024-03-02T01:43:25;17.05;;;5.38;;
51298;SDS011;37382;45.192;9.790;2024-03-02T01:45:53;17.33;;;5.40;;
51298;SDS011;37382;45.192;9.790;2024-03-02T01:48:21;12.40;;;5.30;;
51298;SDS011;37382;45.192;9.790;2024-03-02T01:50:48;16.92;;;5.53;;
51298;SDS011;37382;45.192;9.790;2024-03-02T01:53:15;18.63;;;5.47;;
51298;SDS011;37382;45.192;9.790;2024-03-02T01:55:43;14.35;;;5.18;;
51298;SDS011;37382;45.192;9.790;2024-03-02T01:58:11;17.20;;;5.63;;
51298;SDS011;37382;45.192;9.790;2024-03-02T02:00:38;18.48;;;5.05;;
51298;SDS011;37382;45.192;9.790;2024-03-02T02:03:06;23.63;;;6.07;;
51298;SDS011;37382;45.192;9.790;2024-03-02T02:05:34;8.80;;;4.65;;
51298;SDS011;37382;45.192;9.790;2024-03-02T02:08:02;17.02;;;5.15;;
51298;SDS011;37382;45.192;9.790;2024-03-02T02:10:30;14.52;;;5.15;;
51298;SDS011;37382;45.192;9.790;2024-03-02T02:12:57;13.73;;;4.75;;
51298;SDS011;37382;45.192;9.790;2024-03-02T02:15:25;18.05;;;5.20;;
51298;SDS011;37382;45.192;9.790;2024-03-02T02:17:54;16.73;;;4.85;;
51298;SDS011;37382;45.192;9.790;2024-03-02T02:20:23;16.02;;;4.53;;
51298;SDS011;37382;45.192;9.790;2024-03-02T02:23:01;13.88;;;4.43;;
51298;SDS011;37382;45.192;9.790;2024-03-02T02:25:33;14.93;;;5.10;;
51298;SDS011;37382;45.192;9.790;2024-03-02T02:28:01;18.65;;;5.05;;
51298;SDS011;37382;45.192;9.790;2024-03-02T02:30:29;15.77;;;4.65;;
51298;SDS011;37382;45.192;9.790;2024-03-02T02:32:59;15.50;;;5.03;;
51298;SDS011;37382;45.192;9.790;2024-03-02T02:35:26;15.88;;;4.90;;
51298;SDS011;37382;45.192;9.790;2024-03-02T02:37:55;18.70;;;5.30;;
51298;SDS011;37382;45.192;9.790;2024-03-02T02:40:24;19.30;;;4.90;;
51298;SDS011;37382;45.192;9.790;2024-03-02T02:42:51;24.38;;;5.10;;
51298;SDS011;37382;45.192;9.790;2024-03-02T02:45:19;16.02;;;4.85;;
51298;SDS011;37382;45.192;9.790;2024-03-02T02:47:47;17.60;;;4.60;;
51298;SDS011;37382;45.192;9.790;2024-03-02T02:50:15;16.08;;;4.90;;
51298;SDS011;37382;45.192;9.790;2024-03-02T02:52:43;14.57;;;4.68;;
51298;SDS011;37382;45.192;9.790;2024-03-02T02:55:11;16.52;;;5.13;;
51298;SDS011;37382;45.192;9.790;2024-03-02T02:57:40;16.85;;;5.65;;
51298;SDS011;37382;45.192;9.790;2024-03-02T03:00:11;17.25;;;4.80;;
51298;SDS011;37382;45.192;9.790;2024-03-02T03:02:46;17.17;;;5.05;;
51298;SDS011;37382;45.192;9.790;2024-03-02T03:05:17;17.85;;;5.00;;
51298;SDS011;37382;45.192;9.790;2024-03-02T03:07:45;19.58;;;4.70;;
51298;SDS011;37382;45.192;9.790;2024-03-02T03:10:12;21.40;;;4.88;;
51298;SDS011;37382;45.192;9.790;2024-03-02T03:12:42;19.30;;;4.80;;
51298;SDS011;37382;45.192;9.790;2024-03-02T03:15:11;17.80;;;4.50;;
51298;SDS011;37382;45.192;9.790;2024-03-02T03:17:39;15.23;;;4.30;;
51298;SDS011;37382;45.192;9.790;2024-03-02T03:20:07;15.27;;;4.63;;
51298;SDS011;37382;45.192;9.790;2024-03-02T03:22:38;15.48;;;4.88;;
51298;SDS011;37382;45.192;9.790;2024-03-02T03:25:06;13.60;;;4.45;;
51298;SDS011;37382;45.192;9.790;2024-03-02T03:27:37;19.95;;;4.18;;
51298;SDS011;37382;45.192;9.790;2024-03-02T03:30:04;14.63;;;4.20;;
51298;SDS011;37382;45.192;9.790;2024-03-02T03:32:34;17.90;;;4.43;;
51298;SDS011;37382;45.192;9.790;2024-03-02T03:35:01;19.67;;;4.50;;
51298;SDS011;37382;45.192;9.790;2024-03-02T03:37:29;13.45;;;4.35;;
51298;SDS011;37382;45.192;9.790;2024-03-02T03:40:02;18.40;;;4.05;;
51298;SDS011;37382;45.192;9.790;2024-03-02T03:42:30;16.73;;;4.13;;
51298;SDS011;37382;45.192;9.790;2024-03-02T03:44:57;8.75;;;3.25;;
51298;SDS011;37382;45.192;9.790;2024-03-02T03:47:25;23.17;;;4.10;;
51298;SDS011;37382;45.192;9.790;2024-03-02T03:49:52;14.13;;;3.88;;
51298;SDS011;37382;45.192;9.790;2024-03-02T03:52:19;12.13;;;3.30;;
51298;SDS011;37382;45.192;9.790;2024-03-02T03:54:48;15.13;;;3.35;;
51298;SDS011;37382;45.192;9.790;2024-03-02T03:57:16;11.05;;;3.40;;
51298;SDS011;37382;45.192;9.790;2024-03-02T03:59:43;18.50;;;3.67;;
51298;SDS011;37382;45.192;9.790;2024-03-02T04:02:11;16.60;;;3.47;;
51298;SDS011;37382;45.192;9.790;2024-03-02T04:04:40;10.77;;;3.75;;
51298;SDS011;37382;45.192;9.790;2024-03-02T04:07:07;14.65;;;3.40;;
51298;SDS011;37382;45.192;9.790;2024-03-02T04:09:34;16.70;;;3.25;;
51298;SDS011;37382;45.192;9.790;2024-03-02T04:12:02;16.00;;;4.00;;
51298;SDS011;37382;45.192;9.790;2024-03-02T04:14:30;18.02;;;3.88;;
51298;SDS011;37382;45.192;9.790;2024-03-02T04:16:57;13.20;;;3.17;;
51298;SDS011;37382;45.192;9.790;2024-03-02T04:19:24;22.10;;;4.05;;
51298;SDS011;37382;45.192;9.790;2024-03-02T04:21:52;12.90;;;3.65;;
51298;SDS011;37382;45.192;9.790;2024-03-02T04:24:19;16.50;;;3.47;;
51298;SDS011;37382;45.192;9.790;2024-03-02T04:26:46;18.73;;;3.35;;
51298;SDS011;37382;45.192;9.790;2024-03-02T04:29:14;13.52;;;3.13;;
51298;SDS011;37382;45.192;9.790;2024-03-02T04:31:41;17.67;;;3.97;;
51298;SDS011;37382;45.192;9.790;2024-03-02T04:34:08;18.15;;;3.70;;
51298;SDS011;37382;45.192;9.790;2024-03-02T04:36:36;14.88;;;2.90;;
51298;SDS011;37382;45.192;9.790;2024-03-02T04:39:03;17.30;;;3.45;;
51298;SDS011;37382;45.192;9.790;2024-03-02T04:41:31;14.55;;;3.53;;
51298;SDS011;37382;45.192;9.790;2024-03-02T04:43:59;14.73;;;3.58;;
51298;SDS011;37382;45.192;9.790;2024-03-02T04:46:26;18.13;;;3.30;;
51298;SDS011;37382;45.192;9.790;2024-03-02T04:48:53;18.88;;;3.70;;
51298;SDS011;37382;45.192;9.790;2024-03-02T04:51:24;16.25;;;3.03;;
51298;SDS011;37382;45.192;9.790;2024-03-02T04:53:51;12.73;;;3.30;;
51298;SDS011;37382;45.192;9.790;2024-03-02T04:56:19;9.55;;;3.40;;
51298;SDS011;37382;45.192;9.790;2024-03-02T04:58:50;9.00;;;2.85;;
51298;SDS011;37382;45.192;9.790;2024-03-02T05:01:17;14.27;;;3.15;;
51298;SDS011;37382;45.192;9.790;2024-03-02T05:03:45;16.20;;;3.67;;
51298;SDS011;37382;45.192;9.790;2024-03-02T05:06:12;9.70;;;3.17;;
51298;SDS011;37382;45.192;9.790;2024-03-02T05:08:39;14.82;;;3.20;;
51298;SDS011;37382;45.192;9.790;2024-03-02T05:11:07;19.00;;;3.53;;
51298;SDS011;37382;45.192;9.790;2024-03-02T05:13:53;18.63;;;3.53;;
51298;SDS011;37382;45.192;9.790;2024-03-02T05:16:20;14.88;;;3.75;;
51298;SDS011;37382;45.192;9.790;2024-03-02T05:18:47;12.95;;;4.20;;
51298;SDS011;37382;45.192;9.790;2024-03-02T05:21:15;14.30;;;3.55;;
51298;SDS011;37382;45.192;9.790;2024-03-02T05:23:42;22.65;;;3.92;;
51298;SDS011;37382;45.192;9.790;2024-03-02T05:26:11;16.55;;;3.42;;
51298;SDS011;37382;45.192;9.790;2024-03-02T05:28:41;13.98;;;3.92;;
51298;SDS011;37382;45.192;9.790;2024-03-02T05:31:13;15.77;;;3.72;;
51298;SDS011;37382;45.192;9.790;2024-03-02T05:33:42;12.50;;;3.25;;
51298;SDS011;37382;45.192;9.790;2024-03-02T05:36:10;18.95;;;3.53;;
51298;SDS011;37382;45.192;9.790;2024-03-02T05:38:38;14.40;;;4.05;;
51298;SDS011;37382;45.192;9.790;2024-03-02T05:41:05;26.77;;;4.45;;
51298;SDS011;37382;45.192;9.790;2024-03-02T05:43:32;21.92;;;4.03;;
51298;SDS011;37382;45.192;9.790;2024-03-02T05:46:00;14.60;;;3.65;;
51298;SDS011;37382;45.192;9.790;2024-03-02T05:48:27;13.02;;;3.90;;
51298;SDS011;37382;45.192;9.790;2024-03-02T05:50:54;14.23;;;3.50;;
51298;SDS011;37382;45.192;9.790;2024-03-02T05:53:22;20.23;;;4.40;;
51298;SDS011;37382;45.192;9.790;2024-03-02T05:55:49;13.95;;;4.43;;
51298;SDS011;37382;45.192;9.790;2024-03-02T05:58:22;22.25;;;4.45;;
51298;SDS011;37382;45.192;9.790;2024-03-02T06:01:01;14.20;;;3.78;;
51298;SDS011;37382;45.192;9.790;2024-03-02T06:03:28;17.92;;;3.88;;
51298;SDS011;37382;45.192;9.790;2024-03-02T06:05:55;14.55;;;4.07;;
51298;SDS011;37382;45.192;9.790;2024-03-02T06:08:23;17.58;;;6.50;;
51298;SDS011;37382;45.192;9.790;2024-03-02T06:10:50;19.13;;;5.72;;
51298;SDS011;37382;45.192;9.790;2024-03-02T06:13:18;23.15;;;8.50;;
51298;SDS011;37382;45.192;9.790;2024-03-02T06:15:45;22.77;;;10.85;;
51298;SDS011;37382;45.192;9.790;2024-03-02T06:18:13;25.90;;;8.48;;
51298;SDS011;37382;45.192;9.790;2024-03-02T06:20:40;20.45;;;9.32;;
51298;SDS011;37382;45.192;9.790;2024-03-02T06:23:08;16.90;;;6.50;;
51298;SDS011;37382;45.192;9.790;2024-03-02T06:25:35;19.30;;;6.07;;
51298;SDS011;37382;45.192;9.790;2024-03-02T06:28:03;16.00;;;6.70;;
51298;SDS011;37382;45.192;9.790;2024-03-02T06:30:31;18.63;;;6.45;;
51298;SDS011;37382;45.192;9.790;2024-03-02T06:32:58;15.60;;;4.88;;
51298;SDS011;37382;45.192;9.790;2024-03-02T06:35:26;15.25;;;4.60;;
51298;SDS011;37382;45.192;9.790;2024-03-02T06:37:53;17.35;;;4.50;;
51298;SDS011;37382;45.192;9.790;2024-03-02T06:40:21;16.70;;;5.07;;
51298;SDS011;37382;45.192;9.790;2024-03-02T06:42:48;13.68;;;4.65;;
51298;SDS011;37382;45.192;9.790;2024-03-02T06:45:16;16.33;;;5.13;;
51298;SDS011;37382;45.192;9.790;2024-03-02T06:47:43;23.20;;;4.75;;
51298;SDS011;37382;45.192;9.790;2024-03-02T06:50:11;17.88;;;4.60;;
51298;SDS011;37382;45.192;9.790;2024-03-02T06:52:39;18.05;;;4.55;;
51298;SDS011;37382;45.192;9.790;2024-03-02T06:55:07;15.23;;;5.38;;
51298;SDS011;37382;45.192;9.790;2024-03-02T06:57:34;14.63;;;4.43;;
51298;SDS011;37382;45.192;9.790;2024-03-02T07:00:01;14.93;;;4.72;;
51298;SDS011;37382;45.192;9.790;2024-03-02T07:02:32;17.75;;;4.82;;
51298;SDS011;37382;45.192;9.790;2024-03-02T07:04:59;23.38;;;5.50;;
51298;SDS011;37382;45.192;9.790;2024-03-02T07:07:26;24.10;;;5.00;;
51298;SDS011;37382;45.192;9.790;2024-03-02T07:09:54;11.52;;;4.68;;
51298;SDS011;37382;45.192;9.790;2024-03-02T07:12:21;22.42;;;5.03;;
51298;SDS011;37382;45.192;9.790;2024-03-02T07:14:49;14.15;;;4.78;;
51298;SDS011;37382;45.192;9.790;2024-03-02T07:17:31;16.70;;;4.95;;
51298;SDS011;37382;45.192;9.790;2024-03-02T07:19:59;17.73;;;4.63;;
51298;SDS011;37382;45.192;9.790;2024-03-02T07:22:26;14.73;;;4.72;;
51298;SDS011;37382;45.192;9.790;2024-03-02T07:24:54;22.40;;;4.55;;
51298;SDS011;37382;45.192;9.790;2024-03-02T07:27:21;17.25;;;4.60;;
51298;SDS011;37382;45.192;9.790;2024-03-02T07:29:49;16.60;;;5.00;;
51298;SDS011;37382;45.192;9.790;2024-03-02T07:32:16;17.70;;;4.97;;
51298;SDS011;37382;45.192;9.790;2024-03-02T07:34:44;17.55;;;5.22;;
51298;SDS011;37382;45.192;9.790;2024-03-02T07:37:11;26.60;;;4.55;;
51298;SDS011;37382;45.192;9.790;2024-03-02T07:39:40;14.55;;;4.95;;
51298;SDS011;37382;45.192;9.790;2024-03-02T07:42:08;12.65;;;5.05;;
51298;SDS011;37382;45.192;9.790;2024-03-02T07:44:35;17.30;;;4.63;;
51298;SDS011;37382;45.192;9.790;2024-03-02T07:47:02;22.25;;;5.15;;
51298;SDS011;37382;45.192;9.790;2024-03-02T07:49:30;41.05;;;13.63;;
51298;SDS011;37382;45.192;9.790;2024-03-02T07:51:57;13.98;;;5.40;;
51298;SDS011;37382;45.192;9.790;2024-03-02T07:54:25;19.77;;;6.18;;
51298;SDS011;37382;45.192;9.790;2024-03-02T07:56:53;35.95;;;15.13;;
51298;SDS011;37382;45.192;9.790;2024-03-02T07:59:21;14.07;;;5.47;;
51298;SDS011;37382;45.192;9.790;2024-03-02T08:01:49;11.77;;;4.53;;
51298;SDS011;37382;45.192;9.790;2024-03-02T08:04:18;21.67;;;4.75;;
51298;SDS011;37382;45.192;9.790;2024-03-02T08:06:45;17.20;;;4.47;;
51298;SDS011;37382;45.192;9.790;2024-03-02T08:09:14;18.55;;;4.85;;
51298;SDS011;37382;45.192;9.790;2024-03-02T08:11:41;12.18;;;4.78;;
51298;SDS011;37382;45.192;9.790;2024-03-02T08:14:08;16.77;;;5.75;;
51298;SDS011;37382;45.192;9.790;2024-03-02T08:16:36;18.63;;;4.78;;
51298;SDS011;37382;45.192;9.790;2024-03-02T08:19:04;16.88;;;6.63;;
51298;SDS011;37382;45.192;9.790;2024-03-02T08:21:31;17.55;;;6.55;;
51298;SDS011;37382;45.192;9.790;2024-03-02T08:24:02;16.85;;;6.80;;
51298;SDS011;37382;45.192;9.790;2024-03-02T08:26:29;27.17;;;8.68;;
51298;SDS011;37382;45.192;9.790;2024-03-02T08:28:58;30.80;;;15.10;;
51298;SDS011;37382;45.192;9.790;2024-03-02T08:31:28;48.92;;;26.42;;
51298;SDS011;37382;45.192;9.790;2024-03-02T08:33:56;31.20;;;14.68;;
51298;SDS011;37382;45.192;9.790;2024-03-02T08:36:27;24.25;;;7.72;;
51298;SDS011;37382;45.192;9.790;2024-03-02T08:38:55;29.25;;;14.23;;
51298;SDS011;37382;45.192;9.790;2024-03-02T08:41:22;25.63;;;9.65;;
51298;SDS011;37382;45.192;9.790;2024-03-02T08:43:50;14.50;;;6.30;;
51298;SDS011;37382;45.192;9.790;2024-03-02T08:46:17;24.77;;;6.78;;
51298;SDS011;37382;45.192;9.790;2024-03-02T08:48:45;20.27;;;7.05;;
51298;SDS011;37382;45.192;9.790;2024-03-02T08:51:12;17.23;;;5.53;;
51298;SDS011;37382;45.192;9.790;2024-03-02T08:53:40;16.45;;;6.78;;
51298;SDS011;37382;45.192;9.790;2024-03-02T08:56:07;20.20;;;7.25;;
51298;SDS011;37382;45.192;9.790;2024-03-02T08:58:35;19.67;;;9.63;;
51298;SDS011;37382;45.192;9.790;2024-03-02T09:01:02;17.52;;;6.50;;
51298;SDS011;37382;45.192;9.790;2024-03-02T09:03:30;16.52;;;8.52;;
51298;SDS011;37382;45.192;9.790;2024-03-02T09:06:00;17.73;;;7.22;;
51298;SDS011;37382;45.192;9.790;2024-03-02T09:08:28;17.85;;;6.13;;
51298;SDS011;37382;45.192;9.790;2024-03-02T09:10:56;12.10;;;6.75;;
51298;SDS011;37382;45.192;9.790;2024-03-02T09:13:23;13.65;;;5.93;;
51298;SDS011;37382;45.192;9.790;2024-03-02T09:15:51;11.50;;;5.72;;
51298;SDS011;37382;45.192;9.790;2024-03-02T09:18:18;13.88;;;6.03;;
51298;SDS011;37382;45.192;9.790;2024-03-02T09:20:46;18.92;;;6.53;;
51298;SDS011;37382;45.192;9.790;2024-03-02T09:23:13;19.33;;;7.13;;
51298;SDS011;37382;45.192;9.790;2024-03-02T09:25:41;11.25;;;7.40;;
51298;SDS011;37382;45.192;9.790;2024-03-02T09:28:09;13.68;;;6.72;;
51298;SDS011;37382;45.192;9.790;2024-03-02T09:30:38;14.90;;;7.75;;
51298;SDS011;37382;45.192;9.790;2024-03-02T09:33:05;12.73;;;6.50;;
51298;SDS011;37382;45.192;9.790;2024-03-02T09:35:35;18.65;;;9.32;;
51298;SDS011;37382;45.192;9.790;2024-03-02T09:38:03;21.48;;;8.02;;
51298;SDS011;37382;45.192;9.790;2024-03-02T09:40:30;22.55;;;11.90;;
51298;SDS011;37382;45.192;9.790;2024-03-02T09:42:59;18.77;;;9.38;;
51298;SDS011;37382;45.192;9.790;2024-03-02T09:45:27;22.52;;;11.80;;
51298;SDS011;37382;45.192;9.790;2024-03-02T09:47:55;22.55;;;9.05;;
51298;SDS011;37382;45.192;9.790;2024-03-02T09:50:23;17.10;;;8.50;;
51298;SDS011;37382;45.192;9.790;2024-03-02T09:52:51;16.38;;;8.80;;
51298;SDS011;37382;45.192;9.790;2024-03-02T09:55:19;15.98;;;8.00;;
51298;SDS011;37382;45.192;9.790;2024-03-02T09:57:47;27.45;;;11.73;;
51298;SDS011;37382;45.192;9.790;2024-03-02T10:00:17;19.30;;;10.45;;
51298;SDS011;37382;45.192;9.790;2024-03-02T10:02:44;19.30;;;12.50;;
51298;SDS011;37382;45.192;9.790;2024-03-02T10:05:26;18.73;;;9.93;;
51298;SDS011;37382;45.192;9.790;2024-03-02T10:08:02;15.57;;;8.02;;
51298;SDS011;37382;45.192;9.790;2024-03-02T10:10:37;12.68;;;7.72;;
51298;SDS011;37382;45.192;9.790;2024-03-02T10:13:09;14.93;;;7.57;;
51298;SDS011;37382;45.192;9.790;2024-03-02T10:15:38;13.02;;;8.30;;
51298;SDS011;37382;45.192;9.790;2024-03-02T10:18:08;12.68;;;8.05;;
51298;SDS011;37382;45.192;9.790;2024-03-02T10:20:38;9.90;;;7.13;;
51298;SDS011;37382;45.192;9.790;2024-03-02T10:23:10;11.88;;;8.20;;
51298;SDS011;37382;45.192;9.790;2024-03-02T10:25:41;11.38;;;7.50;;
51298;SDS011;37382;45.192;9.790;2024-03-02T10:28:23;15.13;;;7.03;;
51298;SDS011;37382;45.192;9.790;2024-03-02T10:30:51;13.98;;;6.78;;
51298;SDS011;37382;45.192;9.790;2024-03-02T10:33:20;13.07;;;7.18;;
51298;SDS011;37382;45.192;9.790;2024-03-02T10:35:48;9.57;;;6.60;;
51298;SDS011;37382;45.192;9.790;2024-03-02T10:38:17;10.70;;;6.60;;
51298;SDS011;37382;45.192;9.790;2024-03-02T10:40:48;11.07;;;5.20;;
51298;SDS011;37382;45.192;9.790;2024-03-02T10:43:18;12.07;;;6.57;;
51298;SDS011;37382;45.192;9.790;2024-03-02T10:45:47;11.45;;;7.78;;
51298;SDS011;37382;45.192;9.790;2024-03-02T10:48:16;18.10;;;10.63;;
51298;SDS011;37382;45.192;9.790;2024-03-02T10:50:44;32.17;;;18.73;;
51298;SDS011;37382;45.192;9.790;2024-03-02T10:53:11;31.83;;;19.92;;
51298;SDS011;37382;45.192;9.790;2024-03-02T10:55:39;36.72;;;18.13;;
51298;SDS011;37382;45.192;9.790;2024-03-02T10:58:06;41.55;;;23.38;;
51298;SDS011;37382;45.192;9.790;2024-03-02T11:00:39;34.95;;;21.80;;
51298;SDS011;37382;45.192;9.790;2024-03-02T11:03:08;13.13;;;11.52;;
51298;SDS011;37382;45.192;9.790;2024-03-02T11:05:39;12.00;;;9.25;;
51298;SDS011;37382;45.192;9.790;2024-03-02T11:08:13;16.45;;;9.05;;
51298;SDS011;37382;45.192;9.790;2024-03-02T11:10:57;21.20;;;13.05;;
51298;SDS011;37382;45.192;9.790;2024-03-02T11:13:27;12.38;;;8.43;;
51298;SDS011;37382;45.192;9.790;2024-03-02T11:15:59;12.45;;;7.70;;
51298;SDS011;37382;45.192;9.790;2024-03-02T11:18:32;7.78;;;6.85;;
51298;SDS011;37382;45.192;9.790;2024-03-02T11:21:01;9.35;;;7.00;;
51298;SDS011;37382;45.192;9.790;2024-03-02T11:23:33;14.02;;;8.95;;
51298;SDS011;37382;45.192;9.790;2024-03-02T11:26:17;11.40;;;8.20;;
51298;SDS011;37382;45.192;9.790;2024-03-02T11:28:46;41.08;;;25.10;;
51298;SDS011;37382;45.192;9.790;2024-03-02T11:31:14;36.55;;;24.30;;
51298;SDS011;37382;45.192;9.790;2024-03-02T11:33:41;30.17;;;17.98;;
51298;SDS011;37382;45.192;9.790;2024-03-02T11:36:10;27.80;;;12.40;;
51298;SDS011;37382;45.192;9.790;2024-03-02T11:38:39;11.55;;;9.13;;
51298;SDS011;37382;45.192;9.790;2024-03-02T11:41:10;22.00;;;8.75;;
51298;SDS011;37382;45.192;9.790;2024-03-02T11:43:38;12.25;;;8.93;;
51298;SDS011;37382;45.192;9.790;2024-03-02T11:46:07;10.50;;;7.90;;
51298;SDS011;37382;45.192;9.790;2024-03-02T11:48:35;7.97;;;7.18;;
51298;SDS011;37382;45.192;9.790;2024-03-02T11:51:05;18.20;;;14.57;;
51298;SDS011;37382;45.192;9.790;2024-03-02T11:53:32;18.85;;;12.60;;
51298;SDS011;37382;45.192;9.790;2024-03-02T11:56:02;10.50;;;9.38;;
51298;SDS011;37382;45.192;9.790;2024-03-02T11:58:33;13.18;;;8.05;;
51298;SDS011;37382;45.192;9.790;2024-03-02T12:01:03;12.88;;;8.30;;
51298;SDS011;37382;45.192;9.790;2024-03-02T12:03:30;9.70;;;7.70;;
51298;SDS011;37382;45.192;9.790;2024-03-02T12:05:59;15.63;;;9.20;;
51298;SDS011;37382;45.192;9.790;2024-03-02T12:08:27;14.38;;;7.93;;
51298;SDS011;37382;45.192;9.790;2024-03-02T12:10:55;9.38;;;5.97;;
51298;SDS011;37382;45.192;9.790;2024-03-02T12:13:28;9.38;;;5.32;;
51298;SDS011;37382;45.192;9.790;2024-03-02T12:15:55;5.97;;;4.63;;
51298;SDS011;37382;45.192;9.790;2024-03-02T12:18:23;10.25;;;5.85;;
51298;SDS011;37382;45.192;9.790;2024-03-02T12:20:52;6.15;;;5.53;;
51298;SDS011;37382;45.192;9.790;2024-03-02T12:23:23;6.82;;;5.50;;
51298;SDS011;37382;45.192;9.790;2024-03-02T12:25:51;6.28;;;5.25;;
51298;SDS011;37382;45.192;9.790;2024-03-02T12:28:19;8.02;;;5.90;;
51298;SDS011;37382;45.192;9.790;2024-03-02T12:30:46;7.80;;;5.97;;
51298;SDS011;37382;45.192;9.790;2024-03-02T12:33:15;13.95;;;7.35;;
51298;SDS011;37382;45.192;9.790;2024-03-02T12:35:44;14.32;;;7.47;;
51298;SDS011;37382;45.192;9.790;2024-03-02T12:38:13;10.15;;;8.27;;
51298;SDS011;37382;45.192;9.790;2024-03-02T12:40:42;16.83;;;9.50;;
51298;SDS011;37382;45.192;9.790;2024-03-02T12:43:09;7.85;;;5.47;;
51298;SDS011;37382;45.192;9.790;2024-03-02T12:45:38;8.38;;;6.15;;
51298;SDS011;37382;45.192;9.790;2024-03-02T12:48:05;9.60;;;6.72;;
51298;SDS011;37382;45.192;9.790;2024-03-02T12:50:33;9.10;;;7.25;;
51298;SDS011;37382;45.192;9.790;2024-03-02T12:53:01;11.13;;;7.43;;
51298;SDS011;37382;45.192;9.790;2024-03-02T12:55:29;10.85;;;6.68;;
51298;SDS011;37382;45.192;9.790;2024-03-02T12:57:57;9.07;;;6.75;;
51298;SDS011;37382;45.192;9.790;2024-03-02T13:00:26;10.25;;;6.38;;
51298;SDS011;37382;45.192;9.790;2024-03-02T13:02:56;11.63;;;6.57;;
51298;SDS011;37382;45.192;9.790;2024-03-02T13:05:32;8.88;;;5.72;;
51298;SDS011;37382;45.192;9.790;2024-03-02T13:07:59;12.80;;;6.05;;
51298;SDS011;37382;45.192;9.790;2024-03-02T13:10:27;8.15;;;5.18;;
51298;SDS011;37382;45.192;9.790;2024-03-02T13:12:56;10.27;;;6.13;;
51298;SDS011;37382;45.192;9.790;2024-03-02T13:15:27;10.45;;;6.93;;
51298;SDS011;37382;45.192;9.790;2024-03-02T13:17:58;9.55;;;6.80;;
51298;SDS011;37382;45.192;9.790;2024-03-02T13:20:30;11.05;;;8.55;;
51298;SDS011;37382;45.192;9.790;2024-03-02T13:23:02;9.05;;;7.10;;
51298;SDS011;37382;45.192;9.790;2024-03-02T13:25:30;8.73;;;6.22;;
51298;SDS011;37382;45.192;9.790;2024-03-02T13:27:59;9.75;;;5.32;;
51298;SDS011;37382;45.192;9.790;2024-03-02T13:30:27;7.13;;;5.78;;
51298;SDS011;37382;45.192;9.790;2024-03-02T13:32:55;6.97;;;5.38;;
51298;SDS011;37382;45.192;9.790;2024-03-02T13:35:22;7.93;;;5.45;;
51298;SDS011;37382;45.192;9.790;2024-03-02T13:37:50;7.13;;;5.05;;
51298;SDS011;37382;45.192;9.790;2024-03-02T13:40:17;7.15;;;5.55;;
51298;SDS011;37382;45.192;9.790;2024-03-02T13:42:47;8.13;;;5.53;;
51298;SDS011;37382;45.192;9.790;2024-03-02T13:45:14;9.10;;;6.00;;
51298;SDS011;37382;45.192;9.790;2024-03-02T13:47:42;6.95;;;5.15;;
51298;SDS011;37382;45.192;9.790;2024-03-02T13:50:10;8.43;;;6.65;;
51298;SDS011;37382;45.192;9.790;2024-03-02T13:52:37;10.05;;;6.65;;
51298;SDS011;37382;45.192;9.790;2024-03-02T13:55:05;12.82;;;6.95;;
51298;SDS011;37382;45.192;9.790;2024-03-02T13:57:33;8.98;;;6.00;;
51298;SDS011;37382;45.192;9.790;2024-03-02T14:00:01;9.05;;;5.82;;
51298;SDS011;37382;45.192;9.790;2024-03-02T14:02:38;15.20;;;9.45;;
51298;SDS011;37382;45.192;9.790;2024-03-02T14:05:05;10.68;;;6.65;;
51298;SDS011;37382;45.192;9.790;2024-03-02T14:07:38;10.80;;;8.23;;
51298;SDS011;37382;45.192;9.790;2024-03-02T14:10:06;11.80;;;6.60;;
51298;SDS011;37382;45.192;9.790;2024-03-02T14:12:33;8.90;;;6.82;;
51298;SDS011;37382;45.192;9.790;2024-03-02T14:15:01;8.07;;;6.38;;
51298;SDS011;37382;45.192;9.790;2024-03-02T14:17:31;12.98;;;6.35;;
51298;SDS011;37382;45.192;9.790;2024-03-02T14:19:59;7.25;;;6.57;;
51298;SDS011;37382;45.192;9.790;2024-03-02T14:22:26;9.00;;;7.47;;
51298;SDS011;37382;45.192;9.790;2024-03-02T14:24:54;15.32;;;7.05;;
51298;SDS011;37382;45.192;9.790;2024-03-02T14:27:22;16.00;;;11.88;;
51298;SDS011;37382;45.192;9.790;2024-03-02T14:30:09;8.75;;;6.45;;
51298;SDS011;37382;45.192;9.790;2024-03-02T14:32:37;9.80;;;8.80;;
51298;SDS011;37382;45.192;9.790;2024-03-02T14:35:05;7.45;;;6.38;;
51298;SDS011;37382;45.192;9.790;2024-03-02T14:37:32;9.50;;;7.28;;
51298;SDS011;37382;45.192;9.790;2024-03-02T14:40:00;13.15;;;8.27;;
51298;SDS011;37382;45.192;9.790;2024-03-02T14:42:28;9.15;;;6.70;;
51298;SDS011;37382;45.192;9.790;2024-03-02T14:44:58;10.35;;;6.97;;
51298;SDS011;37382;45.192;9.790;2024-03-02T14:47:26;13.20;;;9.80;;